createdAt,value
2022-12-01T00:01:38.408Z,99.90
2022-12-01T00:04:06.948Z,99.90
2022-12-01T00:06:35.376Z,99.90
2022-12-01T00:09:22.719Z,99.90
2022-12-01T00:11:51.184Z,99.90
2022-12-01T00:14:19.767Z,99.90
2022-12-01T00:16:48.212Z,99.90
2022-12-01T00:19:17.090Z,99.90
2022-12-01T00:21:46.428Z,99.90
2022-12-01T00:24:14.779Z,99.90
2022-12-01T00:26:43.213Z,99.90
2022-12-01T00:29:11.960Z,99.90
2022-12-01T00:31:40.350Z,99.90
2022-12-01T00:34:13.904Z,99.90
2022-12-01T00:36:42.242Z,99.90
2022-12-01T00:39:11.213Z,99.90
2022-12-01T00:41:39.644Z,99.90
2022-12-01T00:44:08.144Z,99.90
2022-12-01T00:46:36.578Z,99.90
2022-12-01T00:49:05.374Z,99.90
2022-12-01T00:51:33.939Z,99.90
2022-12-01T00:54:02.314Z,99.90
2022-12-01T00:56:30.818Z,99.90
2022-12-01T00:58:59.414Z,99.90
2022-12-01T01:01:27.912Z,99.90
2022-12-01T01:03:56.442Z,99.90
2022-12-01T01:06:24.939Z,99.90
2022-12-01T01:08:53.303Z,99.90
2022-12-01T01:11:21.900Z,99.90
2022-12-01T01:13:50.678Z,99.90
2022-12-01T01:16:22.958Z,99.90
2022-12-01T01:18:51.660Z,99.90
2022-12-01T01:21:22.028Z,99.90
2022-12-01T01:23:51.869Z,99.90
2022-12-01T01:26:29.625Z,99.90
2022-12-01T01:28:59.996Z,99.90
2022-12-01T01:31:31.318Z,99.90
2022-12-01T01:34:00.345Z,99.90
2022-12-01T01:36:29.289Z,99.90
2022-12-01T01:38:57.725Z,99.90
2022-12-01T01:41:26.489Z,99.90
2022-12-01T01:43:59.525Z,99.90
2022-12-01T01:46:30.814Z,99.90
2022-12-01T01:49:12.296Z,99.90
2022-12-01T01:51:46.117Z,99.90
2022-12-01T01:54:19.763Z,99.90
2022-12-01T01:56:50.509Z,99.90
2022-12-01T01:59:23.522Z,99.90
2022-12-01T02:02:01.220Z,99.90
2022-12-01T02:04:30.302Z,99.90
2022-12-01T02:06:58.917Z,99.90
2022-12-01T02:09:27.316Z,99.90
2022-12-01T02:12:16.992Z,99.90
2022-12-01T02:15:09.852Z,99.90
2022-12-01T02:18:13.632Z,99.90
2022-12-01T02:21:02.149Z,99.90
2022-12-01T02:23:33.305Z,99.90
2022-12-01T02:26:17.422Z,99.90
2022-12-01T02:29:08.306Z,99.90
2022-12-01T02:32:01.534Z,99.90
2022-12-01T02:34:56.033Z,99.90
2022-12-01T02:37:39.308Z,99.90
2022-12-01T02:40:22.149Z,99.90
2022-12-01T02:43:11.468Z,99.90
2022-12-01T02:45:51.727Z,99.90
2022-12-01T02:48:28.591Z,99.90
2022-12-01T02:51:00.644Z,99.90
2022-12-01T02:53:29.113Z,99.90
2022-12-01T02:56:00.096Z,99.90
2022-12-01T02:58:28.467Z,99.90
2022-12-01T03:01:11.465Z,99.90
2022-12-01T03:03:59.962Z,99.90
2022-12-01T03:06:56.013Z,99.90
2022-12-01T03:09:40.112Z,99.90
2022-12-01T03:12:21.617Z,99.90
2022-12-01T03:15:14.630Z,99.90
2022-12-01T03:18:16.318Z,99.90
2022-12-01T03:20:58.745Z,99.90
2022-12-01T03:23:30.951Z,99.90
2022-12-01T03:26:03.004Z,99.90
2022-12-01T03:28:38.357Z,99.90
2022-12-01T03:31:10.511Z,99.90
2022-12-01T03:33:49.064Z,99.90
2022-12-01T03:36:31.524Z,99.90
2022-12-01T03:39:05.453Z,99.90
2022-12-01T03:41:44.450Z,99.90
2022-12-01T03:44:19.529Z,99.90
2022-12-01T03:47:07.342Z,99.90
2022-12-01T03:49:36.908Z,99.90
2022-12-01T03:52:05.221Z,99.90
2022-12-01T03:54:36.372Z,99.90
2022-12-01T03:57:10.635Z,99.90
2022-12-01T03:59:41.782Z,99.90
2022-12-01T04:02:10.630Z,99.90
2022-12-01T04:04:39.308Z,99.90
2022-12-01T04:07:07.965Z,99.90
2022-12-01T04:09:36.349Z,99.90
2022-12-01T04:12:22.976Z,99.90
2022-12-01T04:14:51.390Z,99.90
2022-12-01T04:17:20.009Z,99.90
2022-12-01T04:19:48.584Z,99.90
2022-12-01T04:22:17.282Z,99.90
2022-12-01T04:24:46.271Z,99.90
2022-12-01T04:27:14.805Z,99.90
2022-12-01T04:29:43.329Z,99.90
2022-12-01T04:32:11.911Z,99.90
2022-12-01T04:34:40.336Z,99.90
2022-12-01T04:37:10.876Z,99.90
2022-12-01T04:39:39.584Z,99.90
2022-12-01T04:42:07.940Z,99.90
2022-12-01T04:44:36.470Z,99.90
2022-12-01T04:47:08.403Z,99.90
2022-12-01T04:49:38.086Z,99.90
2022-12-01T04:52:06.560Z,99.90
2022-12-01T04:54:35.007Z,99.90
2022-12-01T04:57:03.568Z,99.90
2022-12-01T04:59:31.968Z,99.90
2022-12-01T05:02:00.347Z,99.90
2022-12-01T05:04:29.073Z,99.90
2022-12-01T05:06:57.469Z,99.90
2022-12-01T05:09:25.810Z,99.90
2022-12-01T05:11:54.259Z,99.90
2022-12-01T05:14:22.643Z,99.90
2022-12-01T05:16:51.064Z,99.90
2022-12-01T05:19:37.913Z,99.90
2022-12-01T05:22:06.274Z,99.90
2022-12-01T05:24:34.630Z,99.90
2022-12-01T05:27:03.014Z,99.90
2022-12-01T05:29:33.802Z,99.90
2022-12-01T05:32:03.638Z,99.90
2022-12-01T05:34:32.135Z,99.90
2022-12-01T05:37:00.512Z,99.90
2022-12-01T05:39:28.950Z,99.90
2022-12-01T05:41:57.346Z,99.90
2022-12-01T05:44:25.892Z,99.90
2022-12-01T05:46:54.316Z,99.90
2022-12-01T05:49:22.776Z,99.90
2022-12-01T05:51:51.130Z,99.90
2022-12-01T05:54:19.531Z,99.90
2022-12-01T05:56:47.876Z,99.90
2022-12-01T05:59:16.253Z,99.90
2022-12-01T06:01:44.765Z,99.90
2022-12-01T06:04:13.249Z,99.90
2022-12-01T06:06:41.646Z,99.90
2022-12-01T06:09:10.136Z,99.90
2022-12-01T06:11:38.570Z,99.90
2022-12-01T06:14:07.188Z,99.90
2022-12-01T06:16:35.733Z,99.90
2022-12-01T06:19:04.169Z,99.90
2022-12-01T06:21:32.626Z,99.90
2022-12-01T06:24:01.111Z,99.90
2022-12-01T06:26:29.489Z,99.90
2022-12-01T06:28:58.057Z,99.90
2022-12-01T06:31:26.578Z,99.90
2022-12-01T06:33:54.973Z,99.90
2022-12-01T06:36:23.342Z,99.90
2022-12-01T06:38:51.736Z,99.90
2022-12-01T06:41:20.170Z,99.90
2022-12-01T06:43:48.570Z,99.90
2022-12-01T06:46:17.090Z,99.90
2022-12-01T06:48:48.555Z,99.90
2022-12-01T06:51:16.907Z,99.90
2022-12-01T06:53:45.523Z,99.90
2022-12-01T06:56:14.030Z,99.90
2022-12-01T06:58:42.570Z,99.90
2022-12-01T07:01:13.013Z,99.90
2022-12-01T07:03:41.549Z,99.90
2022-12-01T07:06:10.232Z,99.90
2022-12-01T07:08:38.641Z,99.90
2022-12-01T07:11:09.770Z,99.90
2022-12-01T07:13:38.430Z,99.90
2022-12-01T07:16:08.122Z,99.90
2022-12-01T07:18:41.307Z,99.90
2022-12-01T07:21:13.301Z,99.90
2022-12-01T07:23:41.842Z,99.90
2022-12-01T07:26:14.577Z,99.90
2022-12-01T07:28:43.573Z,99.90
2022-12-01T07:31:15.867Z,99.90
2022-12-01T07:33:44.838Z,99.90
2022-12-01T07:36:14.296Z,99.90
2022-12-01T07:38:43.552Z,99.90
2022-12-01T07:41:14.634Z,99.90
2022-12-01T07:43:43.984Z,99.90
2022-12-01T07:46:22.671Z,99.90
2022-12-01T07:48:52.401Z,99.90
2022-12-01T07:51:22.190Z,99.90
2022-12-01T07:53:52.150Z,99.90
2022-12-01T07:56:21.716Z,99.90
2022-12-01T07:58:50.131Z,99.90
2022-12-01T08:01:21.188Z,99.90
2022-12-01T08:03:51.221Z,99.90
2022-12-01T08:06:20.528Z,99.90
2022-12-01T08:08:49.425Z,99.90
2022-12-01T08:11:22.550Z,99.90
2022-12-01T08:13:52.092Z,99.90
2022-12-01T08:16:23.196Z,99.90
2022-12-01T08:18:52.296Z,99.90
2022-12-01T08:21:22.868Z,99.90
2022-12-01T08:23:55.631Z,99.90
2022-12-01T08:26:25.788Z,99.90
2022-12-01T08:28:54.246Z,99.90
2022-12-01T08:31:34.156Z,99.90
2022-12-01T08:34:05.631Z,99.90
2022-12-01T08:36:35.041Z,99.90
2022-12-01T08:39:03.752Z,99.90
2022-12-01T08:41:32.585Z,99.90
2022-12-01T08:44:01.696Z,99.90
2022-12-01T08:46:34.177Z,99.90
2022-12-01T08:49:03.873Z,99.90
2022-12-01T08:51:32.712Z,99.90
2022-12-01T08:54:01.835Z,99.90
2022-12-01T08:56:33.614Z,99.90
2022-12-01T08:59:02.647Z,99.90
2022-12-01T09:01:31.125Z,99.90
2022-12-01T09:04:09.242Z,99.90
2022-12-01T09:06:43.465Z,99.90
2022-12-01T09:09:15.446Z,99.90
2022-12-01T09:11:44.704Z,99.90
2022-12-01T09:14:17.805Z,99.90
2022-12-01T09:16:48.296Z,99.90
2022-12-01T09:19:23.743Z,99.90
2022-12-01T09:21:53.308Z,99.90
2022-12-01T09:24:21.821Z,99.90
2022-12-01T09:26:50.364Z,99.90
2022-12-01T09:29:18.723Z,99.90
2022-12-01T09:31:47.219Z,99.90
2022-12-01T09:34:20.116Z,99.90
2022-12-01T09:36:49.473Z,99.90
2022-12-01T09:39:22.152Z,99.90
2022-12-01T09:42:09.054Z,99.90
2022-12-01T09:44:40.665Z,99.90
2022-12-01T09:47:30.293Z,99.90
2022-12-01T09:50:15.856Z,99.90
2022-12-01T09:52:49.601Z,99.90
2022-12-01T09:55:21.942Z,99.90
2022-12-01T09:57:53.077Z,99.90
2022-12-01T10:00:26.795Z,99.90
2022-12-01T10:03:07.878Z,99.90
2022-12-01T10:06:18.487Z,99.90
2022-12-01T10:09:09.117Z,99.90
2022-12-01T10:11:41.705Z,99.90
2022-12-01T10:14:20.454Z,99.90
2022-12-01T10:17:10.728Z,99.90
2022-12-01T10:19:51.423Z,99.90
2022-12-01T10:22:41.750Z,99.90
2022-12-01T10:25:16.212Z,99.90
2022-12-01T10:28:01.212Z,99.90
2022-12-01T10:30:29.972Z,99.90
2022-12-01T10:33:06.489Z,99.90
2022-12-01T10:35:40.230Z,99.90
2022-12-01T10:38:34.953Z,99.90
2022-12-01T10:41:05.306Z,99.90
2022-12-01T10:43:43.615Z,99.90
2022-12-01T10:46:35.426Z,99.90
2022-12-01T10:49:13.940Z,99.90
2022-12-01T10:51:48.113Z,99.90
2022-12-01T10:54:16.924Z,99.90
2022-12-01T10:56:48.589Z,99.90
2022-12-01T10:59:28.370Z,99.90
2022-12-01T11:01:58.339Z,99.90
2022-12-01T11:04:48.723Z,99.90
2022-12-01T11:07:18.700Z,99.90
2022-12-01T11:09:55.289Z,99.90
2022-12-01T11:12:25.124Z,99.90
2022-12-01T11:14:55.493Z,99.90
2022-12-01T11:17:45.079Z,99.90
2022-12-01T11:20:37.982Z,99.90
2022-12-01T11:23:30.727Z,99.90
2022-12-01T11:26:03.986Z,99.90
2022-12-01T11:28:34.617Z,99.90
2022-12-01T11:31:09.276Z,99.90
2022-12-01T11:33:51.597Z,99.90
2022-12-01T11:36:26.037Z,99.90
2022-12-01T11:39:01.235Z,99.90
2022-12-01T11:41:37.731Z,99.90
2022-12-01T11:44:43.317Z,99.90
2022-12-01T11:47:23.813Z,99.90
2022-12-01T11:50:00.297Z,99.90
2022-12-01T11:52:39.665Z,99.90
2022-12-01T11:55:13.865Z,99.90
2022-12-01T11:57:45.529Z,99.90
2022-12-01T12:00:15.798Z,99.90
2022-12-01T12:03:18.262Z,99.90
2022-12-01T12:06:05.888Z,99.90
2022-12-01T12:08:47.771Z,99.90
2022-12-01T12:11:20.730Z,99.90
2022-12-01T12:14:26.560Z,99.90
2022-12-01T12:17:31.723Z,99.90
2022-12-01T12:20:35.427Z,99.90
2022-12-01T12:23:19.024Z,99.90
2022-12-01T12:26:10.586Z,99.90
2022-12-01T12:28:45.131Z,99.90
2022-12-01T12:31:28.899Z,99.90
2022-12-01T12:34:15.806Z,99.90
2022-12-01T12:36:53.108Z,99.90
2022-12-01T12:39:33.837Z,99.90
2022-12-01T12:42:06.473Z,99.90
2022-12-01T12:44:58.124Z,99.90
2022-12-01T12:47:58.283Z,99.90
2022-12-01T12:50:49.217Z,99.90
2022-12-01T12:53:25.162Z,99.90
2022-12-01T12:56:00.205Z,99.90
2022-12-01T12:58:35.337Z,99.90
2022-12-01T13:01:26.969Z,99.90
2022-12-01T13:04:13.240Z,99.90
2022-12-01T13:07:04.101Z,99.90
2022-12-01T13:09:46.322Z,99.90
2022-12-01T13:12:29.406Z,99.90
2022-12-01T13:15:16.258Z,99.90
2022-12-01T13:18:17.099Z,99.90
2022-12-01T13:20:48.513Z,99.90
2022-12-01T13:23:20.999Z,99.90
2022-12-01T13:25:54.429Z,99.90
2022-12-01T13:28:28.093Z,99.90
2022-12-01T13:31:28.616Z,99.90
2022-12-01T13:34:06.496Z,99.90
2022-12-01T13:36:50.692Z,99.90
2022-12-01T13:39:39.964Z,99.90
2022-12-01T13:42:21.870Z,99.90
2022-12-01T13:45:01.031Z,99.90
2022-12-01T13:47:52.516Z,99.90
2022-12-01T13:50:55.059Z,99.90
2022-12-01T13:53:38.085Z,99.90
2022-12-01T13:56:18.588Z,99.90
2022-12-01T13:58:50.098Z,99.90
2022-12-01T14:01:21.537Z,99.90
2022-12-01T14:04:19.536Z,99.90
2022-12-01T14:06:50.376Z,99.90
2022-12-01T14:09:38.413Z,99.90
2022-12-01T14:12:17.944Z,99.90
2022-12-01T14:15:01.048Z,99.90
2022-12-01T14:17:39.181Z,99.90
2022-12-01T14:20:18.849Z,99.90
2022-12-01T14:22:51.136Z,99.90
2022-12-01T14:25:27.716Z,99.90
2022-12-01T14:28:04.696Z,99.90
2022-12-01T14:30:42.622Z,99.90
2022-12-01T14:33:51.874Z,99.90
2022-12-01T14:36:44.820Z,99.90
2022-12-01T14:39:18.891Z,99.90
2022-12-01T14:41:56.704Z,99.90
2022-12-01T14:44:49.087Z,99.90
2022-12-01T14:47:35.009Z,99.90
2022-12-01T14:50:23.154Z,99.90
2022-12-01T14:53:28.340Z,99.90
2022-12-01T14:56:09.481Z,99.90
2022-12-01T14:58:37.882Z,99.90
2022-12-01T15:01:14.860Z,99.90
2022-12-01T15:04:01.417Z,99.90
2022-12-01T15:06:32.936Z,99.90
2022-12-01T15:12:08.079Z,99.90
2022-12-01T15:14:48.757Z,99.90
2022-12-01T15:17:35.392Z,99.90
2022-12-01T15:20:03.931Z,99.90
2022-12-01T15:22:34.726Z,99.90
2022-12-01T15:25:16.601Z,99.90
2022-12-01T15:27:45.414Z,99.90
2022-12-01T15:30:16.290Z,99.90
2022-12-01T15:32:46.650Z,99.90
2022-12-01T15:35:23.575Z,99.90
2022-12-01T15:37:53.385Z,99.90
2022-12-01T15:43:25.490Z,99.90
2022-12-01T15:46:01.419Z,99.90
2022-12-01T15:48:33.660Z,99.90
2022-12-01T15:51:31.041Z,99.90
2022-12-01T15:54:02.012Z,99.90
2022-12-01T15:56:34.014Z,99.90
2022-12-01T15:59:13.144Z,99.90
2022-12-01T16:01:44.561Z,99.90
2022-12-01T16:04:22.520Z,99.90
2022-12-01T16:07:15.610Z,99.90
2022-12-01T16:09:56.837Z,99.90
2022-12-01T16:12:37.593Z,99.90
2022-12-01T16:15:19.209Z,99.90
2022-12-01T16:17:49.964Z,99.90
2022-12-01T16:20:27.527Z,99.90
2022-12-01T16:22:59.859Z,99.90
2022-12-01T16:25:38.055Z,99.90
2022-12-01T16:28:08.411Z,99.90
2022-12-01T16:30:39.643Z,99.90
2022-12-01T16:33:19.112Z,99.90
2022-12-01T16:35:47.768Z,99.90
2022-12-01T16:38:24.608Z,99.90
2022-12-01T16:40:55.639Z,99.90
2022-12-01T16:43:25.917Z,99.90
2022-12-01T16:46:02.222Z,99.90
2022-12-01T16:48:32.056Z,99.90
2022-12-01T16:51:05.067Z,99.90
2022-12-01T16:53:33.930Z,99.90
2022-12-01T16:56:04.159Z,99.90
2022-12-01T16:58:32.897Z,99.90
2022-12-01T17:01:01.535Z,99.90
2022-12-01T17:03:30.161Z,98.70
2022-12-01T17:06:01.971Z,98.20
2022-12-01T17:08:30.748Z,91.80
2022-12-01T17:10:59.113Z,87.80
2022-12-01T17:13:27.992Z,79.60
2022-12-01T17:15:56.865Z,79.00
2022-12-01T17:18:25.710Z,79.90
2022-12-01T17:21:01.734Z,74.60
2022-12-01T17:23:30.367Z,77.90
2022-12-01T17:25:58.699Z,81.80
2022-12-01T17:28:27.346Z,82.80
2022-12-01T17:30:55.786Z,85.50
2022-12-01T17:33:24.627Z,76.90
2022-12-01T17:35:53.020Z,78.40
2022-12-01T17:38:21.461Z,62.50
2022-12-01T17:41:05.206Z,51.10
2022-12-01T17:43:35.166Z,48.40
2022-12-01T17:46:04.992Z,33.80
2022-12-01T17:48:38.890Z,26.20
2022-12-01T17:51:08.029Z,12.60
2022-12-01T17:53:37.782Z,22.50
2022-12-01T17:56:12.509Z,5.60
2022-12-01T17:58:41.649Z,14.20
2022-12-01T18:01:19.173Z,20.80
2022-12-01T18:03:48.552Z,1.90
2022-12-01T18:06:19.256Z,1.00
2022-12-01T18:08:48.309Z,1.00
2022-12-01T18:11:17.556Z,1.00
2022-12-01T18:13:48.063Z,1.00
2022-12-01T18:16:20.366Z,1.00
2022-12-01T18:18:49.207Z,1.00
2022-12-01T18:21:19.882Z,1.00
2022-12-01T18:23:53.050Z,1.00
2022-12-01T18:26:23.055Z,1.00
2022-12-01T18:28:58.801Z,1.00
2022-12-01T18:31:28.182Z,1.00
2022-12-01T18:33:59.799Z,1.00
2022-12-01T18:36:28.155Z,1.00
2022-12-01T18:39:00.082Z,1.00
2022-12-01T18:41:28.620Z,1.00
2022-12-01T18:43:57.170Z,1.00
2022-12-01T18:46:25.883Z,1.00
2022-12-01T18:49:03.692Z,1.00
2022-12-01T18:51:34.748Z,1.00
2022-12-01T18:54:05.225Z,1.00
2022-12-01T18:56:34.157Z,1.00
2022-12-01T18:59:07.517Z,1.00
2022-12-01T19:01:39.965Z,1.00
2022-12-01T19:04:10.124Z,1.00
2022-12-01T19:06:40.040Z,1.00
2022-12-01T19:09:10.524Z,1.00
2022-12-01T19:11:41.234Z,1.00
2022-12-01T19:14:18.543Z,1.00
2022-12-01T19:16:47.674Z,1.00
2022-12-01T19:19:16.211Z,1.00
2022-12-01T19:21:45.995Z,1.00
2022-12-01T19:24:14.547Z,1.00
2022-12-01T19:26:43.012Z,1.00
2022-12-01T19:29:11.605Z,1.00
2022-12-01T19:31:40.467Z,1.00
2022-12-01T19:34:08.920Z,1.00
2022-12-01T19:36:37.350Z,1.00
2022-12-01T19:39:07.706Z,1.00
2022-12-01T19:41:36.579Z,1.00
2022-12-01T19:44:05.327Z,1.00
2022-12-01T19:46:34.232Z,1.00
2022-12-01T19:49:03.573Z,1.00
2022-12-01T19:51:37.343Z,1.00
2022-12-01T19:54:08.133Z,1.00
2022-12-01T19:56:36.531Z,1.00
2022-12-01T19:59:05.888Z,1.00
2022-12-01T20:01:34.377Z,1.00
2022-12-01T20:04:02.844Z,1.00
2022-12-01T20:06:33.755Z,1.00
2022-12-01T20:09:04.096Z,1.00
2022-12-01T20:11:33.771Z,1.00
2022-12-01T20:14:04.038Z,1.00
2022-12-01T20:16:33.036Z,1.00
2022-12-01T20:19:03.464Z,1.00
2022-12-01T20:21:39.960Z,1.00
2022-12-01T20:24:11.365Z,1.00
2022-12-01T20:26:46.205Z,1.00
2022-12-01T20:29:19.204Z,1.00
2022-12-01T20:31:48.607Z,1.00
2022-12-01T20:34:27.080Z,1.00
2022-12-01T20:36:55.952Z,1.00
2022-12-01T20:39:24.866Z,1.00
2022-12-01T20:41:53.486Z,1.00
2022-12-01T20:44:22.417Z,1.00
2022-12-01T20:46:50.970Z,1.00
2022-12-01T20:49:19.874Z,1.00
2022-12-01T20:51:48.864Z,1.00
2022-12-01T20:54:33.741Z,1.00
2022-12-01T20:57:02.248Z,1.00
2022-12-01T20:59:31.321Z,1.00
2022-12-01T21:01:59.759Z,1.00
2022-12-01T21:04:28.386Z,1.00
2022-12-01T21:06:58.742Z,1.00
2022-12-01T21:09:27.743Z,1.00
2022-12-01T21:12:16.097Z,1.00
2022-12-01T21:15:07.677Z,1.00
2022-12-01T21:17:42.197Z,1.00
2022-12-01T21:20:18.838Z,1.00
2022-12-01T21:22:47.565Z,1.00
2022-12-01T21:25:22.562Z,1.00
2022-12-01T21:27:51.583Z,1.00
2022-12-01T21:30:22.732Z,1.00
2022-12-01T21:32:51.718Z,1.00
2022-12-01T21:35:21.460Z,1.00
2022-12-01T21:37:50.647Z,1.00
2022-12-01T21:40:25.585Z,1.00
2022-12-01T21:42:54.298Z,1.00
2022-12-01T21:45:33.019Z,1.00
2022-12-01T21:48:11.754Z,1.00
2022-12-01T21:50:40.127Z,1.00
2022-12-01T21:53:21.104Z,1.00
2022-12-01T21:55:50.202Z,1.00
2022-12-01T21:58:30.444Z,1.00
2022-12-01T22:01:00.237Z,1.00
2022-12-01T22:03:45.866Z,1.00
2022-12-01T22:06:32.328Z,1.00
2022-12-01T22:09:17.859Z,1.00
2022-12-01T22:11:49.179Z,1.00
2022-12-01T22:14:28.851Z,1.00
2022-12-01T22:17:18.868Z,1.00
2022-12-01T22:19:52.868Z,1.00
2022-12-01T22:22:29.182Z,1.00
2022-12-01T22:25:26.169Z,1.00
2022-12-01T22:27:55.407Z,1.00
2022-12-01T22:30:24.888Z,1.00
2022-12-01T22:32:59.089Z,1.00
2022-12-01T22:35:39.975Z,1.00
2022-12-01T22:38:09.458Z,1.00
2022-12-01T22:40:49.838Z,1.00
2022-12-01T22:43:18.380Z,1.00
2022-12-01T22:45:53.677Z,1.00
2022-12-01T22:48:42.723Z,1.00
2022-12-01T22:51:13.987Z,1.00
2022-12-01T22:53:44.058Z,1.00
2022-12-01T22:56:36.401Z,1.00
2022-12-01T22:59:16.806Z,1.00
2022-12-01T23:01:56.431Z,1.00
2022-12-01T23:04:35.434Z,1.00
2022-12-01T23:07:09.436Z,1.00
2022-12-01T23:09:42.049Z,1.00
2022-12-01T23:12:13.499Z,1.00
2022-12-01T23:14:49.131Z,1.00
2022-12-01T23:17:27.986Z,1.00
2022-12-01T23:20:35.430Z,1.00
2022-12-01T23:23:08.162Z,1.00
2022-12-01T23:25:37.207Z,1.00
2022-12-01T23:28:09.061Z,1.00
2022-12-01T23:30:40.090Z,1.00
2022-12-01T23:33:20.794Z,1.00
2022-12-01T23:36:21.503Z,1.00
2022-12-01T23:38:53.560Z,1.00
2022-12-01T23:41:47.176Z,1.00
2022-12-01T23:44:35.551Z,1.00
2022-12-01T23:47:04.413Z,1.00
2022-12-01T23:49:36.490Z,1.00
2022-12-01T23:52:10.666Z,1.00
2022-12-01T23:54:40.044Z,1.00
2022-12-01T23:57:21.318Z,1.00
2022-12-01T23:59:56.830Z,1.00
